This is the latest recevied weather packets stored in our database for station/object DL2DHM-13. If no packets are shown the sender has not sent any weather packets the latest 10 day(s).
| Time | Temp. | Humidity | Pressure | Rain* | Wind** | Luminosity | Snow |
|---|---|---|---|---|---|---|---|
| 1777126512 | 16.67° C | 49% | 1016.2 hPa | 0 mm | - | 584 W/m² | - |
| 1777126213 | 16.67° C | 48% | 1016.2 hPa | 0 mm | - | 591 W/m² | - |
| 1777123807 | 16.67° C | 53% | 1016.4 hPa | 0 mm | - | 657 W/m² | - |
| 1777122904 | 16.11° C | 53% | 1016.5 hPa | 0 mm | - | 687 W/m² | - |
| 1777122603 | 16.11° C | 49% | 1016.6 hPa | 0 mm | - | 689 W/m² | - |
| 1777121765 | 15.56° C | 55% | 1016.7 hPa | 0 mm | - | 712 W/m² | - |
| 1777120556 | 15° C | 58% | 1016.9 hPa | 0 mm | - | 733 W/m² | - |
| 1777119653 | 14.44° C | 59% | 1017 hPa | 0 mm | - | 742 W/m² | - |
| 1777118450 | 14.44° C | 56% | 1017.2 hPa | 0 mm | - | 754 W/m² | - |
| 1777117551 | 13.89° C | 61% | 1017.3 hPa | 0 mm | - | 756 W/m² | - |
| 1777116945 | 13.33° C | 60% | 1017.4 hPa | 0 mm | - | 766 W/m² | - |
| 1777116043 | 13.33° C | 63% | 1017.5 hPa | 0 mm | - | 761 W/m² | - |
| 1777114538 | 12.78° C | 63% | 1017.7 hPa | 0 mm | - | 744 W/m² | - |
| 1777113334 | 12.22° C | 68% | 1017.8 hPa | 0 mm | - | 737 W/m² | - |
| 1777111829 | 11.11° C | 74% | 1017.9 hPa | 0 mm | - | 712 W/m² | - |
| 1777111529 | 11.11° C | 74% | 1018 hPa | 0 mm | - | 710 W/m² | - |
| 1777111228 | 10.56° C | 72% | 1018.2 hPa | 0 mm | - | 703 W/m² | - |
| 1777110626 | 10° C | 76% | 1018.2 hPa | 0 mm | - | 693 W/m² | - |
| 1777110325 | 10° C | 73% | 1018.1 hPa | 0 mm | - | 684 W/m² | - |
| 1777110024 | 10° C | 75% | 1018.2 hPa | 0 mm | - | 671 W/m² | - |
| 1777109422 | 9.44° C | 78% | 1018.2 hPa | 0 mm | - | 657 W/m² | - |
| 1777108521 | 8.89° C | 78% | 1018.3 hPa | 0 mm | - | 640 W/m² | - |
| 1777104604 | 6.67° C | 85% | 1018.3 hPa | 0 mm | - | 480 W/m² | - |
| 1777104002 | 6.11° C | 86% | 1018.5 hPa | 0 mm | - | 236 W/m² | - |
| 1777103101 | 5.56° C | 86% | 1018.5 hPa | 0 mm | - | 200 W/m² | - |
* Rain latest hour (hover to see other rain measurements)
** Current wind speed in m/s (hover to see current wind gust speed)